createdAt,value
2019-03-21T00:01:57.600Z,100608.67
2019-03-21T00:04:29.573Z,100608.67
2019-03-21T00:07:01.642Z,100614.84
2019-03-21T00:09:38.281Z,100611.30
2019-03-21T00:12:13.514Z,100592.63
2019-03-21T00:14:57.620Z,100592.63
2019-03-21T00:17:44.390Z,100602.29
2019-03-21T00:20:18.279Z,100612.34
2019-03-21T00:22:50.302Z,100609.70
2019-03-21T00:25:26.398Z,100606.61
2019-03-21T00:27:57.689Z,100606.61
2019-03-21T00:30:32.704Z,100617.36
2019-03-21T00:33:04.702Z,100616.28
2019-03-21T00:35:38.519Z,100618.34
2019-03-21T00:38:09.573Z,100611.95
2019-03-21T00:40:49.056Z,100614.50
2019-03-21T00:43:21.306Z,100612.12
2019-03-21T00:45:54.815Z,100609.39
2019-03-21T00:48:26.977Z,100613.59
2019-03-21T00:50:58.974Z,100609.37
2019-03-21T00:53:31.032Z,100618.24
2019-03-21T00:56:02.895Z,100614.33
2019-03-21T00:58:34.887Z,100613.80
2019-03-21T01:01:11.053Z,100610.22
2019-03-21T01:03:43.313Z,100606.87
2019-03-21T01:06:15.393Z,100590.88
2019-03-21T01:08:46.893Z,100590.88
2019-03-21T01:11:18.769Z,100606.30
2019-03-21T01:13:51.786Z,100598.73
2019-03-21T01:16:24.783Z,100602.97
2019-03-21T01:18:56.745Z,100599.27
2019-03-21T01:21:28.847Z,100599.48
2019-03-21T01:24:00.775Z,100598.23
2019-03-21T01:26:32.783Z,100601.68
2019-03-21T01:29:04.760Z,100594.91
2019-03-21T01:31:36.633Z,100593.23
2019-03-21T01:34:10.331Z,100590.33
2019-03-21T01:36:43.318Z,100590.08
2019-03-21T01:39:15.524Z,100588.52
2019-03-21T01:41:47.386Z,100588.52
2019-03-21T01:44:19.447Z,100552.80
2019-03-21T01:46:51.306Z,100552.80
2019-03-21T01:49:23.511Z,100581.88
2019-03-21T01:51:54.706Z,100581.88
2019-03-21T01:54:26.546Z,100580.89
2019-03-21T01:56:58.424Z,100574.69
2019-03-21T01:59:30.366Z,100578.02
2019-03-21T02:02:02.412Z,100574.78
2019-03-21T02:06:10.576Z,100573.44
2019-03-21T02:08:42.513Z,100574.61
2019-03-21T02:11:14.649Z,100581.66
2019-03-21T02:13:46.501Z,100568.85
2019-03-21T02:16:17.649Z,100575.98
2019-03-21T02:18:49.473Z,100568.64
2019-03-21T02:21:20.705Z,100565.17
2019-03-21T02:23:52.611Z,100565.78
2019-03-21T02:26:24.555Z,100566.48
2019-03-21T02:28:56.397Z,100561.36
2019-03-21T02:31:28.251Z,100563.45
2019-03-21T02:34:00.358Z,100567.03
2019-03-21T02:36:32.702Z,100570.59
2019-03-21T02:39:05.418Z,100575.44
2019-03-21T02:41:37.602Z,100569.90
2019-03-21T02:44:09.522Z,100571.20
2019-03-21T02:46:40.652Z,100571.32
2019-03-21T02:49:12.514Z,100578.50
2019-03-21T02:51:44.495Z,100567.67
2019-03-21T02:54:15.680Z,100569.18
2019-03-21T02:56:47.680Z,100572.20
2019-03-21T02:59:19.646Z,100568.87
2019-03-21T03:01:51.532Z,100566.52
2019-03-21T03:04:23.372Z,100565.16
2019-03-21T03:06:55.407Z,100551.06
2019-03-21T03:09:27.359Z,100551.06
2019-03-21T03:11:59.312Z,100547.56
2019-03-21T03:14:31.424Z,100552.66
2019-03-21T03:17:03.395Z,100552.66
2019-03-21T03:19:35.365Z,100564.10
2019-03-21T03:22:07.399Z,100561.88
2019-03-21T03:24:39.387Z,100561.88
2019-03-21T03:27:11.358Z,100560.66
2019-03-21T03:29:43.271Z,100565.72
2019-03-21T03:32:15.301Z,100564.10
2019-03-21T03:34:47.301Z,100560.40
2019-03-21T03:37:19.594Z,100560.40
2019-03-21T03:39:51.420Z,100561.96
2019-03-21T03:42:23.350Z,100560.80
2019-03-21T03:44:55.332Z,100550.33
2019-03-21T03:47:27.443Z,100563.28
2019-03-21T03:49:59.346Z,100563.28
2019-03-21T03:52:31.293Z,100566.86
2019-03-21T03:55:03.305Z,100563.42
2019-03-21T03:57:35.326Z,100565.48
2019-03-21T04:00:11.936Z,100565.48
2019-03-21T04:02:44.118Z,100563.16
2019-03-21T04:05:16.476Z,100563.16
2019-03-21T04:07:48.239Z,100571.14
2019-03-21T04:10:35.263Z,100574.58
2019-03-21T04:13:07.312Z,100568.16
2019-03-21T04:15:51.812Z,100559.44
2019-03-21T04:18:13.338Z,100564.84
2019-03-21T04:20:57.389Z,100570.95
2019-03-21T04:23:28.599Z,100570.95
2019-03-21T04:26:21.494Z,100573.34
2019-03-21T04:28:52.925Z,100568.27
2019-03-21T04:31:24.706Z,100570.89
2019-03-21T04:34:05.895Z,100564.81
2019-03-21T04:36:37.789Z,100562.21
2019-03-21T04:39:11.518Z,100555.41
2019-03-21T04:41:45.725Z,100545.31
2019-03-21T04:44:17.749Z,100556.24
2019-03-21T04:46:49.606Z,100555.48
2019-03-21T04:49:21.518Z,100550.70
2019-03-21T04:51:53.387Z,100545.92
2019-03-21T04:54:24.598Z,100551.89
2019-03-21T04:56:56.504Z,100545.52
2019-03-21T04:59:28.499Z,100550.52
2019-03-21T05:01:59.670Z,100549.11
2019-03-21T05:04:31.639Z,100549.63
2019-03-21T05:07:03.875Z,100548.40
2019-03-21T05:09:36.050Z,100550.01
2019-03-21T05:12:10.285Z,100554.30
2019-03-21T05:14:41.710Z,100553.50
2019-03-21T05:17:13.571Z,100545.86
2019-03-21T05:19:45.525Z,100550.91
2019-03-21T05:22:17.775Z,100549.94
2019-03-21T05:24:50.853Z,100550.33
2019-03-21T05:27:23.474Z,100541.89
2019-03-21T05:29:54.657Z,100550.91
2019-03-21T05:32:26.686Z,100554.73
2019-03-21T05:34:58.643Z,100556.03
2019-03-21T05:37:30.579Z,100550.64
2019-03-21T05:40:02.600Z,100552.59
2019-03-21T05:42:34.581Z,100550.14
2019-03-21T05:45:15.654Z,100561.11
2019-03-21T05:47:48.063Z,100560.08
2019-03-21T05:50:20.380Z,100558.78
2019-03-21T05:52:52.551Z,100559.31
2019-03-21T05:55:26.712Z,100566.27
2019-03-21T05:57:57.718Z,100563.80
2019-03-21T06:00:51.557Z,100566.40
2019-03-21T06:03:36.393Z,100573.03
2019-03-21T06:06:34.314Z,100569.92
2019-03-21T06:09:22.338Z,100578.28
2019-03-21T06:12:05.822Z,100577.25
2019-03-21T06:15:04.292Z,100577.25
2019-03-21T06:17:36.264Z,100578.41
2019-03-21T06:20:56.511Z,100577.39
2019-03-21T06:23:41.567Z,100577.39
2019-03-21T06:26:28.567Z,100584.11
2019-03-21T06:29:00.486Z,100585.16
2019-03-21T06:31:31.690Z,100576.30
2019-03-21T06:34:03.833Z,100582.17
2019-03-21T06:36:36.783Z,100584.45
2019-03-21T06:39:10.700Z,100587.52
2019-03-21T06:41:42.825Z,100596.50
2019-03-21T06:44:14.817Z,100588.28
2019-03-21T06:46:49.658Z,100596.88
2019-03-21T06:49:21.282Z,100597.13
2019-03-21T06:51:53.495Z,100582.86
2019-03-21T07:15:46.598Z,100589.50
2019-03-21T07:18:18.641Z,100589.50
2019-03-21T07:20:50.988Z,100592.81
2019-03-21T07:23:24.772Z,100593.18
2019-03-21T07:25:56.936Z,100599.70
2019-03-21T07:28:29.774Z,100603.37
2019-03-21T07:31:01.700Z,100594.08
2019-03-21T07:33:35.465Z,100592.39
2019-03-21T07:36:06.671Z,100597.22
2019-03-21T07:38:38.917Z,100597.19
2019-03-21T07:41:11.335Z,100598.57
2019-03-21T07:43:43.440Z,100596.48
2019-03-21T07:46:15.476Z,100599.58
2019-03-21T07:48:46.645Z,100594.32
2019-03-21T07:51:18.667Z,100596.23
2019-03-21T07:53:50.696Z,100591.80
2019-03-21T07:56:24.940Z,100586.49
2019-03-21T07:58:58.288Z,100588.86
2019-03-21T08:01:30.321Z,100573.05
2019-03-21T08:04:03.152Z,100573.05
2019-03-21T08:06:37.352Z,100588.38
2019-03-21T08:09:11.048Z,100588.38
2019-03-21T08:11:43.047Z,100588.02
2019-03-21T08:14:18.359Z,100592.89
2019-03-21T08:16:50.472Z,100584.02
2019-03-21T08:19:24.299Z,100577.49
2019-03-21T08:21:56.305Z,100572.96
2019-03-21T08:24:28.414Z,100578.14
2019-03-21T08:27:00.480Z,100578.14
2019-03-21T08:29:33.031Z,100587.61
2019-03-21T08:32:06.553Z,100584.48
2019-03-21T08:34:38.614Z,100580.49
2019-03-21T08:37:12.347Z,100581.64
2019-03-21T08:39:44.297Z,100581.12
2019-03-21T08:42:16.385Z,100575.38
2019-03-21T08:44:51.285Z,100572.09
2019-03-21T08:47:23.347Z,100542.92
2019-03-21T08:49:55.261Z,100542.92
2019-03-21T08:52:27.711Z,100573.81
2019-03-21T08:54:59.819Z,100571.98
2019-03-21T08:57:31.987Z,100570.80
2019-03-21T09:00:09.298Z,100564.89
2019-03-21T09:02:41.363Z,100570.78
2019-03-21T09:05:15.033Z,100570.78
2019-03-21T09:07:47.047Z,100567.72
2019-03-21T09:10:21.429Z,100572.20
2019-03-21T09:12:53.464Z,100564.97
2019-03-21T09:15:25.505Z,100558.61
2019-03-21T09:17:57.666Z,100568.60
2019-03-21T09:20:30.113Z,100566.32
2019-03-21T09:23:02.288Z,100560.43
2019-03-21T09:25:34.333Z,100527.44
2019-03-21T09:28:06.325Z,100553.23
2019-03-21T09:30:38.288Z,100549.45
2019-03-21T09:33:11.044Z,100550.09
2019-03-21T09:35:43.802Z,100550.09
2019-03-21T09:38:16.527Z,100548.25
2019-03-21T09:40:51.867Z,100551.05
2019-03-21T09:43:24.304Z,100549.23
2019-03-21T09:45:57.594Z,100542.59
2019-03-21T09:48:30.260Z,100546.22
2019-03-21T09:51:06.510Z,100537.41
2019-03-21T09:53:38.690Z,100537.41
2019-03-21T09:56:11.298Z,100537.21
2019-03-21T09:58:44.727Z,100538.22
2019-03-21T10:01:18.675Z,100538.22
2019-03-21T10:03:51.418Z,100544.58
2019-03-21T10:06:26.078Z,100540.55
2019-03-21T10:08:58.292Z,100539.63
2019-03-21T10:11:30.394Z,100521.34
2019-03-21T10:14:02.343Z,100529.57
2019-03-21T10:16:36.649Z,100512.79
2019-03-21T10:19:08.748Z,100512.79
2019-03-21T10:21:43.534Z,100518.44
2019-03-21T10:24:14.533Z,100519.08
2019-03-21T10:26:47.067Z,100515.86
2019-03-21T10:29:19.323Z,100508.98
2019-03-21T10:31:51.381Z,100489.42
2019-03-21T10:34:23.329Z,100489.13
2019-03-21T10:36:55.383Z,100495.64
2019-03-21T10:39:29.492Z,100486.83
2019-03-21T10:42:01.547Z,100486.83
2019-03-21T10:44:33.836Z,100484.02
2019-03-21T10:47:05.981Z,100482.47
2019-03-21T10:49:38.298Z,100478.05
2019-03-21T10:52:12.039Z,100455.59
2019-03-21T10:54:45.297Z,100455.59
2019-03-21T10:57:17.448Z,100443.08
2019-03-21T10:59:49.018Z,100443.08
2019-03-21T11:02:21.289Z,100468.77
2019-03-21T11:04:53.414Z,100454.31
2019-03-21T11:07:23.285Z,100454.31
2019-03-21T11:09:55.307Z,100453.87
2019-03-21T11:12:30.662Z,100453.13
2019-03-21T11:15:03.878Z,100453.13
2019-03-21T11:17:36.011Z,100455.18
2019-03-21T11:20:09.285Z,100455.42
2019-03-21T11:22:41.538Z,100442.06
2019-03-21T11:25:13.756Z,100442.06
2019-03-21T11:27:45.702Z,100443.03
2019-03-21T11:30:35.295Z,100445.78
2019-03-21T11:33:07.582Z,100410.16
2019-03-21T11:35:40.289Z,100410.16
2019-03-21T11:38:12.333Z,100421.82
2019-03-21T11:40:44.444Z,100425.45
2019-03-21T11:43:15.902Z,100425.45
2019-03-21T11:45:48.368Z,100427.13
2019-03-21T11:48:19.644Z,100420.49
2019-03-21T11:50:54.790Z,100412.25
2019-03-21T11:53:26.718Z,100403.03
2019-03-21T11:55:59.296Z,100406.75
2019-03-21T11:58:31.366Z,100397.91
2019-03-21T12:01:04.890Z,100395.67
2019-03-21T12:03:37.032Z,100395.67
2019-03-21T12:06:09.308Z,100387.39
2019-03-21T12:08:41.462Z,100385.87
2019-03-21T12:11:12.626Z,100385.87
2019-03-21T12:13:44.572Z,100380.78
2019-03-21T12:16:16.438Z,100388.34
2019-03-21T12:18:48.459Z,100376.31
2019-03-21T12:21:19.768Z,100378.11
2019-03-21T12:23:51.702Z,100372.27
2019-03-21T12:26:23.677Z,100370.48
2019-03-21T12:28:55.714Z,100356.52
2019-03-21T12:31:27.786Z,100360.01
2019-03-21T12:34:00.319Z,100357.17
2019-03-21T12:36:34.597Z,100352.95
2019-03-21T12:39:09.463Z,100352.95
2019-03-21T12:41:40.875Z,100352.55
2019-03-21T12:44:14.374Z,100352.70
2019-03-21T12:46:45.652Z,100344.91
2019-03-21T12:49:17.676Z,100337.94
2019-03-21T12:51:51.364Z,100339.66
2019-03-21T12:54:22.939Z,100334.08
2019-03-21T12:56:54.786Z,100327.52
2019-03-21T12:59:26.695Z,100337.89
2019-03-21T13:02:00.298Z,100323.91
2019-03-21T13:04:32.322Z,100286.44
2019-03-21T13:07:05.941Z,100286.44
2019-03-21T13:09:37.983Z,100323.84
2019-03-21T13:12:10.292Z,100314.17
2019-03-21T13:14:41.615Z,100302.52
2019-03-21T13:17:13.539Z,100302.52
2019-03-21T13:19:45.859Z,100306.60
2019-03-21T13:22:17.911Z,100300.53
2019-03-21T13:25:06.731Z,100306.77
2019-03-21T13:27:38.697Z,100299.90
2019-03-21T13:30:13.583Z,100291.47
2019-03-21T13:32:47.094Z,100302.30
2019-03-21T13:39:03.667Z,100299.62
2019-03-21T13:41:38.356Z,100293.84
2019-03-21T13:44:10.290Z,100255.58
2019-03-21T13:46:54.248Z,100287.16
2019-03-21T13:49:27.746Z,100287.16
2019-03-21T13:51:59.653Z,100278.68
2019-03-21T13:54:31.574Z,100275.28
2019-03-21T13:57:03.584Z,100274.92
2019-03-21T14:02:29.361Z,100246.98
2019-03-21T14:05:10.354Z,100246.98
2019-03-21T14:07:41.595Z,100237.27
2019-03-21T14:13:21.308Z,100241.16
2019-03-21T14:15:53.362Z,100252.80
2019-03-21T14:22:07.303Z,100255.50
2019-03-21T14:28:05.601Z,100223.11
2019-03-21T14:30:37.951Z,100243.40
2019-03-21T14:33:09.880Z,100239.38
2019-03-21T14:35:43.610Z,100236.89
2019-03-21T14:38:25.890Z,100230.47
2019-03-21T14:40:49.227Z,100237.92
2019-03-21T14:43:21.304Z,100237.92
2019-03-21T14:45:53.537Z,100229.80
2019-03-21T14:48:29.911Z,100229.80
2019-03-21T15:00:17.504Z,100192.98
2019-03-21T15:02:49.774Z,100192.98
2019-03-21T15:05:21.897Z,100228.94
2019-03-21T15:07:53.796Z,100229.47
2019-03-21T15:10:26.016Z,100218.75
2019-03-21T15:13:00.609Z,100217.33
2019-03-21T15:15:32.583Z,100219.77
2019-03-21T15:18:04.654Z,100218.39
2019-03-21T15:20:37.078Z,100213.87
2019-03-21T15:23:09.290Z,100217.52
2019-03-21T15:25:41.371Z,100212.31
2019-03-21T15:28:13.452Z,100212.31
2019-03-21T15:30:46.327Z,100205.58
2019-03-21T15:33:18.292Z,100206.78
2019-03-21T15:35:51.694Z,100206.78
2019-03-21T15:38:23.461Z,100211.32
2019-03-21T15:40:55.237Z,100208.80
2019-03-21T15:43:27.287Z,100210.18
2019-03-21T15:45:59.318Z,100212.59
2019-03-21T15:48:31.348Z,100170.20
2019-03-21T15:51:04.725Z,100202.71
2019-03-21T15:53:37.450Z,100211.76
2019-03-21T15:56:09.663Z,100211.76
2019-03-21T15:58:41.881Z,100208.37
2019-03-21T16:01:13.843Z,100206.86
2019-03-21T16:03:45.803Z,100205.86
2019-03-21T16:06:17.712Z,100200.68
2019-03-21T16:08:49.814Z,100210.41
2019-03-21T16:11:22.018Z,100201.96
2019-03-21T16:13:54.264Z,100210.64
2019-03-21T16:16:26.302Z,100187.87
2019-03-21T16:18:58.322Z,100202.07
2019-03-21T16:21:30.736Z,100202.07
2019-03-21T16:24:05.396Z,100196.55
2019-03-21T16:26:36.949Z,100201.94
2019-03-21T16:29:10.348Z,100201.95
2019-03-21T16:31:42.591Z,100206.00
2019-03-21T16:34:14.806Z,100206.34
2019-03-21T16:36:48.291Z,100198.44
2019-03-21T16:39:20.470Z,100203.84
2019-03-21T16:41:51.933Z,100203.84
2019-03-21T16:44:24.283Z,100206.39
2019-03-21T16:46:56.356Z,100213.59
2019-03-21T16:49:28.343Z,100206.80
2019-03-21T16:52:00.620Z,100202.86
2019-03-21T16:54:32.791Z,100202.86
2019-03-21T16:57:08.904Z,100209.81
2019-03-21T16:59:41.167Z,100211.16
2019-03-21T17:02:13.298Z,100208.85
2019-03-21T17:04:45.489Z,100209.16
2019-03-21T17:07:16.916Z,100209.16
2019-03-21T17:09:49.313Z,100208.56
2019-03-21T17:12:23.020Z,100211.17
2019-03-21T17:14:55.189Z,100211.17
2019-03-21T17:17:30.437Z,100217.01
2019-03-21T17:20:03.834Z,100218.27
2019-03-21T17:22:36.282Z,100219.08
2019-03-21T17:25:09.596Z,100221.05
2019-03-21T17:27:41.669Z,100221.05
2019-03-21T17:30:16.507Z,100214.33
2019-03-21T17:32:48.640Z,100215.80
2019-03-21T17:35:22.364Z,100215.34
2019-03-21T17:37:55.054Z,100216.63
2019-03-21T17:40:27.361Z,100213.48
2019-03-21T17:42:59.247Z,100217.88
2019-03-21T17:45:32.837Z,100214.74
2019-03-21T17:48:05.981Z,100221.13
2019-03-21T17:50:38.403Z,100221.06
2019-03-21T17:53:10.661Z,100217.78
2019-03-21T17:55:42.739Z,100222.07
2019-03-21T17:58:14.743Z,100223.18
2019-03-21T18:00:47.030Z,100223.96
2019-03-21T18:03:19.297Z,100224.13
2019-03-21T18:05:52.566Z,100234.84
2019-03-21T18:08:24.741Z,100234.84
2019-03-21T18:10:57.414Z,100238.62
2019-03-21T18:13:29.699Z,100238.42
2019-03-21T18:16:01.900Z,100246.38
2019-03-21T18:18:33.971Z,100245.50
2019-03-21T18:21:06.193Z,100250.26
2019-03-21T18:23:38.440Z,100242.71
2019-03-21T18:26:09.908Z,100242.71
2019-03-21T18:28:42.330Z,100246.91
2019-03-21T18:31:14.362Z,100259.75
2019-03-21T18:33:46.426Z,100256.97
2019-03-21T18:36:17.617Z,100256.97
2019-03-21T18:38:58.744Z,100266.17
2019-03-21T18:41:23.562Z,100270.16
2019-03-21T18:43:55.727Z,100271.89
2019-03-21T18:46:27.656Z,100275.15
2019-03-21T18:48:59.753Z,100278.02
2019-03-21T18:51:31.701Z,100280.61
2019-03-21T18:54:04.057Z,100288.68
2019-03-21T18:56:36.299Z,100285.24
2019-03-21T18:59:08.423Z,100278.94
2019-03-21T19:01:39.881Z,100278.94
2019-03-21T19:04:12.227Z,100282.74
2019-03-21T19:06:44.323Z,100286.62
2019-03-21T19:09:16.259Z,100281.14
2019-03-21T19:11:48.559Z,100280.78
2019-03-21T19:14:20.678Z,100289.69
2019-03-21T19:16:52.982Z,100286.42
2019-03-21T19:19:25.302Z,100281.70
2019-03-21T19:21:57.778Z,100290.53
2019-03-21T19:24:31.585Z,100290.53
2019-03-21T19:27:03.700Z,100294.55
2019-03-21T19:29:36.312Z,100296.44
2019-03-21T19:32:08.394Z,100303.16
2019-03-21T19:34:40.011Z,100303.16
2019-03-21T19:37:12.069Z,100297.92
2019-03-21T19:39:45.802Z,100304.87
2019-03-21T19:42:18.044Z,100300.59
2019-03-21T19:44:54.224Z,100300.30
2019-03-21T19:47:30.499Z,100295.85
2019-03-21T19:50:03.874Z,100295.85
2019-03-21T19:52:40.675Z,100298.66
2019-03-21T19:55:30.162Z,100296.49
2019-03-21T19:57:55.265Z,100296.17
2019-03-21T20:00:29.299Z,100283.81
2019-03-21T20:03:05.867Z,100294.66
2019-03-21T20:05:40.530Z,100294.66
2019-03-21T20:08:12.667Z,100303.70
2019-03-21T20:10:44.627Z,100307.45
2019-03-21T20:13:16.801Z,100316.34
2019-03-21T20:15:49.057Z,100310.39
2019-03-21T20:18:24.548Z,100307.87
2019-03-21T20:20:58.542Z,100306.36
2019-03-21T20:23:30.697Z,100302.58
2019-03-21T20:26:04.964Z,100311.45
2019-03-21T20:28:39.560Z,100302.03
2019-03-21T20:31:11.680Z,100306.78
2019-03-21T20:33:45.383Z,100307.90
2019-03-21T20:36:16.931Z,100317.26
2019-03-21T20:38:49.074Z,100309.84
2019-03-21T20:41:21.733Z,100316.86
2019-03-21T20:43:54.124Z,100314.52
2019-03-21T20:46:26.318Z,100322.97
2019-03-21T20:49:01.469Z,100315.24
2019-03-21T20:51:36.302Z,100313.66
2019-03-21T20:54:08.406Z,100295.36
2019-03-21T20:56:42.270Z,100295.36
2019-03-21T20:59:17.318Z,100316.45
2019-03-21T21:01:49.273Z,100306.06
2019-03-21T21:04:22.505Z,100308.77
2019-03-21T21:06:54.824Z,100308.36
2019-03-21T21:09:27.287Z,100308.16
2019-03-21T21:11:59.407Z,100305.23
2019-03-21T21:14:31.370Z,100305.23
2019-03-21T21:17:03.373Z,100300.74
2019-03-21T21:19:35.380Z,100297.63
2019-03-21T21:22:07.433Z,100297.63
2019-03-21T21:24:39.033Z,100298.98
2019-03-21T21:27:10.986Z,100296.70
2019-03-21T21:29:44.818Z,100298.44
2019-03-21T21:32:30.385Z,100297.80
2019-03-21T21:35:09.284Z,100302.55
2019-03-21T21:37:45.817Z,100308.39
2019-03-21T21:40:19.041Z,100308.89
2019-03-21T21:42:52.451Z,100314.38
2019-03-21T21:45:23.709Z,100315.44
2019-03-21T21:47:55.615Z,100311.95
2019-03-21T21:50:27.723Z,100314.61
2019-03-21T21:52:59.632Z,100312.72
2019-03-21T21:55:31.706Z,100309.98
2019-03-21T21:58:04.106Z,100311.42
2019-03-21T22:00:36.305Z,100315.62
2019-03-21T22:03:08.302Z,100298.04
2019-03-21T22:05:40.490Z,100292.36
2019-03-21T22:08:12.052Z,100292.36
2019-03-21T22:10:43.894Z,100321.23
2019-03-21T22:13:15.844Z,100311.86
2019-03-21T22:15:48.562Z,100320.80
2019-03-21T22:18:20.659Z,100315.80
2019-03-21T22:20:52.822Z,100316.77
2019-03-21T22:23:24.792Z,100320.31
2019-03-21T22:25:56.833Z,100325.28
2019-03-21T22:28:28.712Z,100320.43
2019-03-21T22:31:00.732Z,100320.98
2019-03-21T22:33:34.309Z,100320.23
2019-03-21T22:36:06.673Z,100312.36
2019-03-21T22:38:46.290Z,100312.36
2019-03-21T22:41:27.345Z,100310.56
2019-03-21T22:44:03.281Z,100310.56
2019-03-21T22:46:54.258Z,100308.33
2019-03-21T22:49:26.421Z,100292.78
2019-03-21T22:51:58.382Z,100292.78
2019-03-21T22:54:30.809Z,100304.93
2019-03-21T22:57:04.291Z,100304.93
2019-03-21T22:59:36.526Z,100304.39
2019-03-21T23:02:10.406Z,100310.45
2019-03-21T23:04:41.693Z,100310.10
2019-03-21T23:07:16.547Z,100300.86
2019-03-21T23:09:48.392Z,100301.27
2019-03-21T23:12:20.430Z,100294.37
2019-03-21T23:14:52.445Z,100294.37
2019-03-21T23:17:30.425Z,100292.59
2019-03-21T23:20:06.549Z,100298.10
2019-03-21T23:22:41.035Z,100298.66
2019-03-21T23:25:17.329Z,100296.77
2019-03-21T23:27:49.306Z,100293.05
2019-03-21T23:30:20.758Z,100293.05
2019-03-21T23:32:52.697Z,100292.28
2019-03-21T23:35:25.034Z,100301.63
2019-03-21T23:37:57.297Z,100298.20
2019-03-21T23:40:29.402Z,100295.80
2019-03-21T23:43:02.313Z,100295.80
2019-03-21T23:45:34.502Z,100286.45
2019-03-21T23:48:08.325Z,100286.45
2019-03-21T23:50:40.377Z,100304.27
2019-03-21T23:53:12.293Z,100287.09
2019-03-21T23:55:44.363Z,100291.23
2019-03-21T23:58:15.637Z,100291.23
